Time,TemperatureF,DewpointF,PressureIn,WindDirection,WindDirectionDegrees,WindSpeedMPH,WindSpeedGustMPH,Humidity,HourlyPrecipIn,Conditions,Clouds,dailyrainin,SolarRadiationWatts/m^2,SoftwareType,DateUTC
2013-02-17 00:01:00,33.0,20.0,29.99,West,277,4.0,8.0,60,-99.99,,,-99.99,0.000000,,2013-02-17 08:01:00,
2013-02-17 00:10:00,32.0,20.0,29.98,West,271,2.0,5.0,59,-99.99,,,-99.99,0.000000,,2013-02-17 08:10:00,
2013-02-17 00:52:00,32.0,20.0,29.98,West,271,2.0,5.0,59,-99.99,,,-99.99,0.000000,,2013-02-17 08:52:00,
2013-02-17 01:01:00,32.0,20.0,29.98,West,271,2.0,5.0,59,-99.99,,,-99.99,0.000000,,2013-02-17 09:01:00,
2013-02-17 01:10:00,32.0,19.0,29.96,NW,310,2.0,5.0,59,-99.99,,,-99.99,0.000000,,2013-02-17 09:10:00,
2013-02-17 01:51:00,32.0,19.0,29.96,NW,310,2.0,5.0,59,-99.99,,,-99.99,0.000000,,2013-02-17 09:51:00,
2013-02-17 02:01:00,32.0,19.0,29.96,NW,310,2.0,5.0,59,-99.99,,,-99.99,0.000000,,2013-02-17 10:01:00,
2013-02-17 02:10:00,30.0,19.0,29.93,NW,309,3.0,6.0,65,-99.99,,,-99.99,0.000000,,2013-02-17 10:10:00,
2013-02-17 02:51:00,30.0,19.0,29.93,NW,309,3.0,6.0,65,-99.99,,,-99.99,0.000000,,2013-02-17 10:51:00,
2013-02-17 03:01:00,30.0,19.0,29.93,NW,309,3.0,6.0,65,-99.99,,,-99.99,0.000000,,2013-02-17 11:01:00,
2013-02-17 03:10:00,32.0,18.0,29.90,NNW,345,2.0,5.0,56,-99.99,,,-99.99,0.000000,,2013-02-17 11:10:00,
2013-02-17 03:52:00,32.0,18.0,29.90,NNW,345,2.0,5.0,56,-99.99,,,-99.99,0.000000,,2013-02-17 11:52:00,
2013-02-17 04:03:00,32.0,18.0,29.90,NNW,345,2.0,5.0,56,-99.99,,,-99.99,0.000000,,2013-02-17 12:03:00,
2013-02-17 04:10:00,30.0,19.0,29.89,NW,304,5.0,6.0,62,-99.99,,,-99.99,0.000000,,2013-02-17 12:10:00,
2013-02-17 04:52:00,30.0,19.0,29.89,NW,304,5.0,6.0,62,-99.99,,,-99.99,0.000000,,2013-02-17 12:52:00,
2013-02-17 05:02:00,30.0,19.0,29.89,NW,304,5.0,6.0,62,-99.99,,,-99.99,0.000000,,2013-02-17 13:02:00,
2013-02-17 05:10:00,29.0,17.0,29.87,NW,308,4.0,7.0,61,-99.99,,,-99.99,0.000000,,2013-02-17 13:10:00,
2013-02-17 05:51:00,29.0,17.0,29.87,NW,308,4.0,7.0,61,-99.99,,,-99.99,0.000000,,2013-02-17 13:51:00,
2013-02-17 06:01:00,29.0,17.0,29.87,NW,308,4.0,7.0,61,-99.99,,,-99.99,0.000000,,2013-02-17 14:01:00,
2013-02-17 06:10:00,32.0,16.0,29.87,NW,312,4.0,7.0,50,-99.99,,,-99.99,0.000000,,2013-02-17 14:10:00,
2013-02-17 06:52:00,32.0,16.0,29.87,NW,312,4.0,7.0,50,-99.99,,,-99.99,0.000000,,2013-02-17 14:52:00,
2013-02-17 07:01:00,32.0,16.0,29.87,NW,312,4.0,7.0,50,-99.99,,,-99.99,0.000000,,2013-02-17 15:01:00,
2013-02-17 07:10:00,31.0,16.0,29.87,ESE,120,2.0,5.0,53,-99.99,,,-99.99,60.000000,,2013-02-17 15:10:00,
2013-02-17 07:52:00,31.0,16.0,29.87,ESE,120,2.0,5.0,53,-99.99,,,-99.99,60.000000,,2013-02-17 15:52:00,
2013-02-17 08:01:00,31.0,16.0,29.87,ESE,120,2.0,5.0,53,-99.99,,,-99.99,60.000000,,2013-02-17 16:01:00,
2013-02-17 08:51:00,44.0,13.0,29.88,NNW,329,11.0,22.0,28,-99.99,,,-99.99,300.000000,,2013-02-17 16:51:00,
2013-02-17 09:02:00,44.0,13.0,29.88,NNW,329,11.0,22.0,28,-99.99,,,-99.99,300.000000,,2013-02-17 17:02:00,
2013-02-17 09:10:00,45.0,12.0,29.88,WNW,288,6.0,13.0,26,-99.99,,,-99.99,490.000000,,2013-02-17 17:10:00,
2013-02-17 09:52:00,45.0,12.0,29.88,WNW,288,6.0,13.0,26,-99.99,,,-99.99,490.000000,,2013-02-17 17:52:00,
2013-02-17 10:01:00,45.0,12.0,29.88,WNW,288,6.0,13.0,26,-99.99,,,-99.99,490.000000,,2013-02-17 18:01:00,
2013-02-17 10:10:00,45.0,17.0,29.90,North,3,8.0,15.0,33,-99.99,,,-99.99,590.000000,,2013-02-17 18:10:00,
2013-02-17 10:52:00,45.0,17.0,29.90,North,3,8.0,15.0,33,-99.99,,,-99.99,590.000000,,2013-02-17 18:52:00,
2013-02-17 11:01:00,45.0,17.0,29.90,North,3,8.0,15.0,33,-99.99,,,-99.99,590.000000,,2013-02-17 19:01:00,
2013-02-17 11:10:00,42.0,16.0,29.90,NNE,16,8.0,14.0,34,-99.99,,,-99.99,270.000000,,2013-02-17 19:10:00,
2013-02-17 11:51:00,42.0,16.0,29.90,NNE,16,8.0,14.0,34,-99.99,,,-99.99,270.000000,,2013-02-17 19:51:00,
2013-02-17 12:01:00,42.0,16.0,29.90,NNE,16,8.0,14.0,34,-99.99,,,-99.99,270.000000,,2013-02-17 20:01:00,
2013-02-17 12:10:00,42.0,14.0,29.89,WNW,295,11.0,26.0,32,-99.99,,,-99.99,250.000000,,2013-02-17 20:10:00,
2013-02-17 12:52:00,42.0,14.0,29.89,WNW,295,11.0,26.0,32,-99.99,,,-99.99,250.000000,,2013-02-17 20:52:00,
2013-02-17 13:01:00,42.0,14.0,29.89,WNW,295,11.0,26.0,32,-99.99,,,-99.99,250.000000,,2013-02-17 21:01:00,
2013-02-17 13:10:00,42.0,17.0,29.89,NNW,338,5.0,12.0,36,-99.99,,,-99.99,280.000000,,2013-02-17 21:10:00,
2013-02-17 13:52:00,42.0,17.0,29.89,NNW,338,5.0,12.0,36,-99.99,,,-99.99,280.000000,,2013-02-17 21:52:00,
2013-02-17 14:01:00,42.0,17.0,29.89,NNW,338,5.0,12.0,36,-99.99,,,-99.99,280.000000,,2013-02-17 22:01:00,
2013-02-17 14:10:00,40.0,16.0,29.88,NNW,334,11.0,22.0,37,-99.99,,,-99.99,200.000000,,2013-02-17 22:10:00,
2013-02-17 14:52:00,40.0,16.0,29.88,NNW,334,11.0,22.0,37,-99.99,,,-99.99,200.000000,,2013-02-17 22:52:00,
2013-02-17 15:02:00,40.0,16.0,29.88,NNW,334,11.0,22.0,37,-99.99,,,-99.99,200.000000,,2013-02-17 23:02:00,
2013-02-17 15:10:00,41.0,10.0,29.89,NW,305,16.0,32.0,28,-99.99,,,-99.99,440.000000,,2013-02-17 23:10:00,
2013-02-17 15:52:00,41.0,10.0,29.89,NW,305,16.0,32.0,28,-99.99,,,-99.99,440.000000,,2013-02-17 23:52:00,
2013-02-17 16:01:00,41.0,10.0,29.89,NW,305,16.0,32.0,28,-99.99,,,-99.99,440.000000,,2013-02-18 00:01:00,
2013-02-17 16:10:00,38.0,12.0,29.90,NW,317,17.0,29.0,33,-99.99,,,-99.99,170.000000,,2013-02-18 00:10:00,
2013-02-17 16:52:00,38.0,12.0,29.90,NW,317,17.0,29.0,33,-99.99,,,-99.99,170.000000,,2013-02-18 00:52:00,
2013-02-17 17:01:00,38.0,12.0,29.90,NW,317,17.0,29.0,33,-99.99,,,-99.99,170.000000,,2013-02-18 01:01:00,
2013-02-17 17:10:00,32.0,22.0,29.93,North,4,14.0,20.0,64,-99.99,,,-99.99,10.000000,,2013-02-18 01:10:00,
2013-02-17 17:51:00,32.0,22.0,29.93,North,4,14.0,20.0,64,-99.99,,,-99.99,10.000000,,2013-02-18 01:51:00,
2013-02-17 18:01:00,32.0,22.0,29.93,North,4,14.0,20.0,64,-99.99,,,-99.99,10.000000,,2013-02-18 02:01:00,
2013-02-17 18:10:00,31.0,22.0,29.96,NNW,339,11.0,17.0,69,-99.99,,,-99.99,0.000000,,2013-02-18 02:10:00,
2013-02-17 18:52:00,31.0,22.0,29.96,NNW,339,11.0,17.0,69,-99.99,,,-99.99,0.000000,,2013-02-18 02:52:00,
2013-02-17 19:01:00,31.0,22.0,29.96,NNW,339,11.0,17.0,69,-99.99,,,-99.99,0.000000,,2013-02-18 03:01:00,
2013-02-17 19:10:00,30.0,19.0,29.98,NNW,334,8.0,14.0,63,-99.99,,,-99.99,0.000000,,2013-02-18 03:10:00,
2013-02-17 19:51:00,30.0,19.0,29.98,NNW,334,8.0,14.0,63,-99.99,,,-99.99,0.000000,,2013-02-18 03:51:00,
2013-02-17 20:01:00,30.0,19.0,29.98,NNW,334,8.0,14.0,63,-99.99,,,-99.99,0.000000,,2013-02-18 04:01:00,
2013-02-17 20:10:00,28.0,16.0,30.00,NW,316,6.0,8.0,61,-99.99,,,-99.99,0.000000,,2013-02-18 04:10:00,
2013-02-17 20:51:00,28.0,16.0,30.00,NW,316,6.0,8.0,61,-99.99,,,-99.99,0.000000,,2013-02-18 04:51:00,
2013-02-17 21:01:00,28.0,16.0,30.00,NW,316,6.0,8.0,61,-99.99,,,-99.99,0.000000,,2013-02-18 05:01:00,
2013-02-17 21:10:00,25.0,16.0,30.03,NW,315,4.0,6.0,67,-99.99,,,-99.99,0.000000,,2013-02-18 05:10:00,
2013-02-17 21:52:00,25.0,16.0,30.03,NW,315,4.0,6.0,67,-99.99,,,-99.99,0.000000,,2013-02-18 05:52:00,
2013-02-17 22:02:00,25.0,16.0,30.03,NW,315,4.0,6.0,67,-99.99,,,-99.99,0.000000,,2013-02-18 06:02:00,
2013-02-17 23:10:00,21.0,15.0,30.05,ENE,72,0.0,3.0,76,-99.99,,,-99.99,0.000000,,2013-02-18 07:10:00,
2013-02-17 23:51:00,21.0,15.0,30.05,ENE,72,0.0,3.0,76,-99.99,,,-99.99,0.000000,,2013-02-18 07:51:00,